createdAt,value
2023-03-26T00:01:17.856Z,100290.34
2023-03-26T00:03:47.404Z,100293.06
2023-03-26T00:06:17.278Z,100293.19
2023-03-26T00:08:45.858Z,100294.69
2023-03-26T00:11:14.858Z,100284.78
2023-03-26T00:13:44.047Z,100298.78
2023-03-26T00:16:16.125Z,100295.00
2023-03-26T00:18:43.786Z,100289.13
2023-03-26T00:21:16.020Z,100292.47
2023-03-26T00:23:43.354Z,100297.63
2023-03-26T00:26:11.019Z,100290.56
2023-03-26T00:28:40.689Z,100292.09
2023-03-26T00:31:10.248Z,100292.09
2023-03-26T00:33:40.925Z,100293.88
2023-03-26T00:36:16.869Z,100292.09
2023-03-26T00:38:45.133Z,100293.69
2023-03-26T00:41:39.946Z,100288.88
2023-03-26T00:44:06.623Z,100283.38
2023-03-26T00:46:33.316Z,100282.38
2023-03-26T00:49:00.716Z,100279.53
2023-03-26T00:51:28.645Z,100280.28
2023-03-26T00:53:56.293Z,100274.06
2023-03-26T00:56:23.064Z,100278.38
2023-03-26T00:58:53.087Z,100273.09
2023-03-26T01:01:28.454Z,100273.22
2023-03-26T01:04:08.205Z,100263.72
2023-03-26T01:06:38.899Z,100260.22
2023-03-26T01:09:14.581Z,100257.59
2023-03-26T01:11:41.262Z,100256.56
2023-03-26T01:14:26.986Z,100259.03
2023-03-26T01:16:55.792Z,100256.84
2023-03-26T01:19:41.317Z,100252.78
2023-03-26T01:22:11.312Z,100243.91
2023-03-26T01:24:39.289Z,100247.56
2023-03-26T01:27:09.762Z,100251.06
2023-03-26T01:29:37.733Z,100242.19
2023-03-26T01:32:19.104Z,100239.56
2023-03-26T01:35:12.586Z,100235.84
2023-03-26T01:38:01.166Z,100235.13
2023-03-26T01:40:43.161Z,100234.44
2023-03-26T01:43:26.215Z,100226.13
2023-03-26T01:45:53.780Z,100217.91
2023-03-26T01:48:20.921Z,100218.00
2023-03-26T01:50:49.191Z,100214.31
2023-03-26T01:53:16.089Z,100216.28
2023-03-26T01:56:47.788Z,100209.47
2023-03-26T01:59:36.880Z,100201.47
2023-03-26T02:02:26.819Z,100188.59
2023-03-26T02:05:09.798Z,100192.94
2023-03-26T02:07:51.316Z,100190.47
2023-03-26T02:10:24.939Z,100187.75
2023-03-26T02:12:51.964Z,100185.19
2023-03-26T02:15:18.938Z,100176.50
2023-03-26T02:17:47.183Z,100172.75
2023-03-26T02:20:15.485Z,100175.19
2023-03-26T02:22:46.101Z,100171.69
2023-03-26T02:25:21.307Z,100170.66
2023-03-26T02:27:49.809Z,100165.38
2023-03-26T02:30:20.159Z,100161.88
2023-03-26T02:32:46.879Z,100160.00
2023-03-26T02:35:13.885Z,100161.66
2023-03-26T02:37:42.273Z,100152.72
2023-03-26T02:40:11.898Z,100153.66
2023-03-26T02:42:39.335Z,100144.22
2023-03-26T02:45:06.937Z,100145.44
2023-03-26T02:47:33.974Z,100144.75
2023-03-26T02:50:01.636Z,100147.78
2023-03-26T02:52:28.338Z,100134.53
2023-03-26T02:54:55.012Z,100130.81
2023-03-26T02:57:22.570Z,100126.25
2023-03-26T02:59:50.520Z,100120.78
2023-03-26T03:02:18.495Z,100109.16
2023-03-26T03:04:45.458Z,100110.56
2023-03-26T03:07:14.657Z,100103.97
2023-03-26T03:09:41.740Z,100094.25
2023-03-26T03:12:08.521Z,100095.06
2023-03-26T03:14:35.864Z,100091.69
2023-03-26T03:17:02.723Z,100087.25
2023-03-26T03:19:29.436Z,100086.31
2023-03-26T03:21:56.394Z,100088.00
2023-03-26T03:24:23.646Z,100085.19
2023-03-26T03:26:50.519Z,100072.97
2023-03-26T03:29:17.590Z,100074.59
2023-03-26T03:31:44.324Z,100069.94
2023-03-26T03:34:11.108Z,100074.69
2023-03-26T03:36:38.708Z,100069.38
2023-03-26T03:39:05.441Z,100063.81
2023-03-26T03:41:32.219Z,100062.88
2023-03-26T03:44:00.018Z,100065.44
2023-03-26T03:46:26.859Z,100054.00
2023-03-26T03:48:53.572Z,100055.78
2023-03-26T03:51:20.439Z,100052.84
2023-03-26T03:53:47.659Z,100053.13
2023-03-26T03:56:14.950Z,100042.00
2023-03-26T03:58:42.429Z,100043.88
2023-03-26T04:01:09.285Z,100043.63
2023-03-26T04:03:39.043Z,100041.63
2023-03-26T04:06:11.258Z,100046.06
2023-03-26T04:08:38.270Z,100035.38
2023-03-26T04:11:05.206Z,100029.34
2023-03-26T04:13:31.891Z,100037.00
2023-03-26T04:15:58.864Z,100026.44
2023-03-26T04:18:26.569Z,100025.56
2023-03-26T04:20:55.869Z,100016.72
2023-03-26T04:23:23.401Z,100017.47
2023-03-26T04:25:53.906Z,100015.78
2023-03-26T04:28:43.911Z,100015.00
2023-03-26T04:31:15.875Z,100008.94
2023-03-26T04:33:47.056Z,100003.50
2023-03-26T04:36:16.162Z,100001.69
2023-03-26T04:38:45.535Z,99997.16
2023-03-26T04:41:13.006Z,99986.22
2023-03-26T04:43:47.334Z,99990.75
2023-03-26T04:46:14.678Z,99989.81
2023-03-26T04:48:41.685Z,99988.66
2023-03-26T04:51:10.274Z,99982.44
2023-03-26T04:53:37.041Z,99980.25
2023-03-26T04:56:14.603Z,99979.09
2023-03-26T04:58:41.591Z,99974.66
2023-03-26T05:01:11.333Z,99975.50
2023-03-26T05:03:41.496Z,99964.09
2023-03-26T05:06:10.845Z,99961.56
2023-03-26T05:08:37.512Z,99957.75
2023-03-26T05:11:07.600Z,99948.81
2023-03-26T05:13:34.255Z,99943.16
2023-03-26T05:16:00.969Z,99937.00
2023-03-26T05:18:27.728Z,99933.97
2023-03-26T05:20:54.800Z,99941.75
2023-03-26T05:23:21.613Z,99932.94
2023-03-26T05:25:48.335Z,99929.84
2023-03-26T05:28:15.215Z,99937.38
2023-03-26T05:30:43.695Z,99934.06
2023-03-26T05:33:10.827Z,99922.09
2023-03-26T05:35:37.700Z,99913.97
2023-03-26T05:38:04.579Z,99919.38
2023-03-26T05:40:31.267Z,99914.06
2023-03-26T05:42:58.046Z,99904.34
2023-03-26T05:45:24.737Z,99906.06
2023-03-26T05:47:54.354Z,99905.22
2023-03-26T05:50:21.082Z,99909.25
2023-03-26T05:52:47.783Z,99899.66
2023-03-26T05:55:14.582Z,99900.41
2023-03-26T05:57:42.176Z,99891.22
2023-03-26T06:00:11.060Z,99889.44
2023-03-26T06:02:38.145Z,99887.47
2023-03-26T06:05:05.413Z,99885.09
2023-03-26T06:07:34.083Z,99879.78
2023-03-26T06:10:01.165Z,99875.09
2023-03-26T06:12:27.866Z,99875.63
2023-03-26T06:14:54.519Z,99869.59
2023-03-26T06:17:21.238Z,99872.22
2023-03-26T06:19:48.148Z,99867.63
2023-03-26T06:22:14.816Z,99870.13
2023-03-26T06:24:41.461Z,99864.00
2023-03-26T06:27:08.106Z,99861.25
2023-03-26T06:29:34.818Z,99862.81
2023-03-26T06:32:12.464Z,99858.25
2023-03-26T06:34:43.396Z,99852.88
2023-03-26T06:37:10.107Z,99859.22
2023-03-26T06:39:36.756Z,99845.88
2023-03-26T06:42:03.481Z,99852.03
2023-03-26T06:44:30.160Z,99848.66
2023-03-26T06:46:56.851Z,99848.34
2023-03-26T06:49:23.589Z,99847.03
2023-03-26T06:51:50.443Z,99845.41
2023-03-26T06:54:17.127Z,99849.66
2023-03-26T06:56:44.010Z,99840.47
2023-03-26T06:59:10.681Z,99833.38
2023-03-26T07:01:37.389Z,99839.53
2023-03-26T07:04:04.155Z,99823.41
2023-03-26T07:06:31.048Z,99828.59
2023-03-26T07:08:57.760Z,99822.53
2023-03-26T07:11:25.762Z,99818.97
2023-03-26T07:13:52.673Z,99818.97
2023-03-26T07:16:19.530Z,99811.97
2023-03-26T07:18:46.328Z,99814.63
2023-03-26T07:21:13.422Z,99811.44
2023-03-26T07:23:40.403Z,99805.28
2023-03-26T07:26:39.519Z,99793.00
2023-03-26T07:29:34.614Z,99794.41
2023-03-26T07:32:19.239Z,99796.78
2023-03-26T07:34:51.041Z,99793.59
2023-03-26T07:37:22.125Z,99787.72
2023-03-26T07:40:14.695Z,99782.44
2023-03-26T07:43:03.993Z,99774.84
2023-03-26T07:45:34.033Z,99781.75
2023-03-26T07:48:01.197Z,99773.81
2023-03-26T07:50:27.993Z,99776.06
2023-03-26T07:52:54.980Z,99778.69
2023-03-26T07:55:22.580Z,99777.31
2023-03-26T07:58:01.913Z,99774.78
2023-03-26T08:00:35.607Z,99772.25
2023-03-26T08:03:11.928Z,99763.91
2023-03-26T08:06:19.883Z,99778.16
2023-03-26T08:08:58.793Z,99778.06
2023-03-26T08:11:43.868Z,99766.13
2023-03-26T08:14:17.593Z,99768.03
2023-03-26T08:17:12.001Z,99771.00
2023-03-26T08:19:58.337Z,99766.56
2023-03-26T08:22:31.998Z,99766.66
2023-03-26T08:25:33.542Z,99763.41
2023-03-26T08:28:12.442Z,99763.81
2023-03-26T08:30:39.260Z,99763.91
2023-03-26T08:33:11.443Z,99770.16
2023-03-26T08:35:42.660Z,99764.78
2023-03-26T08:38:14.556Z,99757.38
2023-03-26T08:41:08.999Z,99760.53
2023-03-26T08:43:41.706Z,99755.34
2023-03-26T08:46:14.342Z,99760.63
2023-03-26T08:49:08.896Z,99761.81
2023-03-26T08:52:20.379Z,99753.25
2023-03-26T08:55:06.335Z,99762.13
2023-03-26T08:57:49.317Z,99758.00
2023-03-26T09:00:34.047Z,99763.09
2023-03-26T09:03:22.190Z,99752.94
2023-03-26T09:06:01.628Z,99749.44
2023-03-26T09:08:59.420Z,99749.09
2023-03-26T09:11:53.516Z,99747.41
2023-03-26T09:14:41.947Z,99747.53
2023-03-26T09:17:37.594Z,99748.16
2023-03-26T09:20:56.958Z,99749.00
2023-03-26T09:23:57.661Z,99739.69
2023-03-26T09:26:25.010Z,99742.53
2023-03-26T09:29:08.609Z,99738.94
2023-03-26T09:31:58.369Z,99740.75
2023-03-26T09:34:37.318Z,99736.97
2023-03-26T09:37:22.283Z,99745.41
2023-03-26T09:40:19.760Z,99734.09
2023-03-26T09:42:56.930Z,99742.88
2023-03-26T09:45:46.472Z,99739.56
2023-03-26T09:48:38.885Z,99734.41
2023-03-26T09:51:26.109Z,99735.13
2023-03-26T09:54:23.748Z,99730.81
2023-03-26T09:57:16.653Z,99733.75
2023-03-26T10:00:34.791Z,99731.88
2023-03-26T10:03:49.799Z,99730.41
2023-03-26T10:06:33.687Z,99731.66
2023-03-26T10:09:23.256Z,99729.84
2023-03-26T10:11:49.930Z,99732.09
2023-03-26T10:14:17.926Z,99728.88
2023-03-26T10:17:03.499Z,99729.41
2023-03-26T10:19:49.247Z,99722.13
2023-03-26T10:22:47.204Z,99723.59
2023-03-26T10:25:33.027Z,99718.00
2023-03-26T10:28:08.855Z,99727.09
2023-03-26T10:31:13.262Z,99720.00
2023-03-26T10:34:00.441Z,99721.94
2023-03-26T10:36:37.238Z,99716.41
2023-03-26T10:39:37.874Z,99717.69
2023-03-26T10:42:28.229Z,99718.22
2023-03-26T10:45:04.753Z,99718.22
2023-03-26T10:48:08.061Z,99729.44
2023-03-26T10:50:40.779Z,99716.22
2023-03-26T10:53:12.964Z,99721.59
2023-03-26T10:55:41.164Z,99718.28
2023-03-26T10:58:27.778Z,99713.66
2023-03-26T11:01:05.905Z,99721.69
2023-03-26T11:03:52.284Z,99724.22
2023-03-26T11:06:34.046Z,99722.31
2023-03-26T11:09:43.384Z,99722.50
2023-03-26T11:12:34.763Z,99711.84
2023-03-26T11:15:32.088Z,99715.44
2023-03-26T11:18:14.147Z,99710.25
2023-03-26T11:20:48.837Z,99712.28
2023-03-26T11:23:27.147Z,99715.66
2023-03-26T11:26:07.790Z,99715.13
2023-03-26T11:29:03.873Z,99715.22
2023-03-26T11:31:57.605Z,99713.44
2023-03-26T11:34:38.155Z,99715.97
2023-03-26T11:37:09.371Z,99710.50
2023-03-26T11:39:46.320Z,99709.84
2023-03-26T11:42:14.691Z,99710.88
2023-03-26T11:44:50.646Z,99708.47
2023-03-26T11:47:23.186Z,99702.91
2023-03-26T11:49:51.995Z,99707.13
2023-03-26T11:52:18.914Z,99707.66
2023-03-26T11:54:48.674Z,99705.44
2023-03-26T11:57:21.621Z,99707.34
2023-03-26T11:59:57.556Z,99702.69
2023-03-26T12:02:35.961Z,99705.09
2023-03-26T12:05:15.177Z,99707.09
2023-03-26T12:08:04.489Z,99708.13
2023-03-26T12:10:39.294Z,99697.00
2023-03-26T12:13:19.409Z,99698.47
2023-03-26T12:15:46.193Z,99703.78
2023-03-26T12:18:25.469Z,99703.16
2023-03-26T12:21:05.942Z,99697.22
2023-03-26T12:23:44.665Z,99700.00
2023-03-26T12:26:15.618Z,99694.50
2023-03-26T12:28:47.499Z,99697.41
2023-03-26T12:31:18.466Z,99691.34
2023-03-26T12:33:52.722Z,99689.50
2023-03-26T12:36:29.452Z,99692.91
2023-03-26T12:39:16.656Z,99694.84
2023-03-26T12:44:42.960Z,99691.16
2023-03-26T12:44:47.214Z,99687.16
2023-03-26T12:47:59.070Z,99687.41
2023-03-26T12:50:15.283Z,99698.16
2023-03-26T12:52:48.288Z,99684.78
2023-03-26T12:55:21.866Z,99681.47
2023-03-26T12:58:38.565Z,99694.31
2023-03-26T13:01:16.257Z,99692.00
2023-03-26T13:04:35.768Z,99699.09
2023-03-26T13:07:22.510Z,99695.47
2023-03-26T13:10:17.075Z,99691.38
2023-03-26T13:12:54.183Z,99692.63
2023-03-26T13:15:24.706Z,99687.06
2023-03-26T13:18:04.179Z,99693.09
2023-03-26T13:20:40.306Z,99693.34
2023-03-26T13:23:42.883Z,99684.97
2023-03-26T13:26:40.288Z,99699.13
2023-03-26T13:29:19.048Z,99703.63
2023-03-26T13:31:58.999Z,99698.19
2023-03-26T13:34:28.596Z,99695.75
2023-03-26T13:37:13.676Z,99703.13
2023-03-26T13:39:50.368Z,99706.75
2023-03-26T13:42:33.877Z,99707.38
2023-03-26T13:45:12.430Z,99695.53
2023-03-26T13:47:49.688Z,99701.06
2023-03-26T13:50:26.631Z,99705.47
2023-03-26T13:52:59.659Z,99699.72
2023-03-26T13:55:48.766Z,99713.03
2023-03-26T13:58:38.340Z,99707.78
2023-03-26T14:01:12.693Z,99709.34
2023-03-26T14:04:00.811Z,99708.56
2023-03-26T14:06:36.550Z,99714.50
2023-03-26T14:09:24.782Z,99717.75
2023-03-26T14:11:58.077Z,99716.75
2023-03-26T14:14:34.388Z,99717.31
2023-03-26T14:17:11.060Z,99720.25
2023-03-26T14:20:02.190Z,99727.03
2023-03-26T14:23:07.707Z,99727.56
2023-03-26T14:25:50.607Z,99732.50
2023-03-26T14:28:54.004Z,99731.38
2023-03-26T14:31:42.616Z,99718.25
2023-03-26T14:34:40.023Z,99729.34
2023-03-26T14:37:17.322Z,99730.03
2023-03-26T14:40:22.494Z,99741.66
2023-03-26T14:43:27.372Z,99736.38
2023-03-26T14:46:06.593Z,99743.81
2023-03-26T14:49:01.247Z,99743.47
2023-03-26T14:51:46.662Z,99745.78
2023-03-26T14:54:17.221Z,99749.28
2023-03-26T14:56:53.583Z,99755.66
2023-03-26T14:59:26.338Z,99764.13
2023-03-26T15:02:17.725Z,99768.25
2023-03-26T15:05:03.266Z,99774.66
2023-03-26T15:07:53.149Z,99771.66
2023-03-26T15:10:49.886Z,99767.84
2023-03-26T15:13:42.081Z,99779.50
2023-03-26T15:16:17.834Z,99777.06
2023-03-26T15:18:51.380Z,99788.41
2023-03-26T15:21:33.349Z,99789.78
2023-03-26T15:24:32.741Z,99793.34
2023-03-26T15:27:30.655Z,99793.16
2023-03-26T15:30:18.560Z,99809.06
2023-03-26T15:33:01.533Z,99807.25
2023-03-26T15:35:57.582Z,99813.16
2023-03-26T15:38:52.200Z,99807.34
2023-03-26T15:41:43.764Z,99816.22
2023-03-26T15:44:50.879Z,99812.75
2023-03-26T15:47:33.671Z,99824.69
2023-03-26T15:50:16.412Z,99834.31
2023-03-26T15:53:02.945Z,99840.28
2023-03-26T15:55:55.214Z,99832.88
2023-03-26T15:58:26.553Z,99846.72
2023-03-26T16:01:10.375Z,99847.69
2023-03-26T16:03:48.507Z,99852.31
2023-03-26T16:06:50.282Z,99854.75
2023-03-26T16:09:54.430Z,99865.44
2023-03-26T16:12:27.821Z,99874.13
2023-03-26T16:15:07.554Z,99872.53
2023-03-26T16:18:19.332Z,99883.09
2023-03-26T16:20:57.382Z,99888.22
2023-03-26T16:23:29.758Z,99893.94
2023-03-26T16:26:06.100Z,99904.88
2023-03-26T16:28:56.520Z,99909.56
2023-03-26T16:31:37.156Z,99909.97
2023-03-26T16:34:05.446Z,99919.38
2023-03-26T16:36:34.811Z,99923.56
2023-03-26T16:39:05.074Z,99932.34
2023-03-26T16:41:50.372Z,99935.88
2023-03-26T16:44:33.150Z,99943.66
2023-03-26T16:47:09.198Z,99946.50
2023-03-26T16:49:43.705Z,99952.00
2023-03-26T16:52:23.840Z,99950.06
2023-03-26T16:55:07.429Z,99960.31
2023-03-26T16:57:57.264Z,99964.97
2023-03-26T17:00:35.899Z,99969.22
2023-03-26T17:03:27.466Z,99975.63
2023-03-26T17:05:55.218Z,99983.66
2023-03-26T17:08:36.407Z,99986.75
2023-03-26T17:11:15.992Z,99991.75
2023-03-26T17:14:03.837Z,99997.97
2023-03-26T17:16:34.263Z,100008.06
2023-03-26T17:19:42.370Z,100017.19
2023-03-26T17:22:27.992Z,100019.28
2023-03-26T17:25:11.886Z,100024.97
2023-03-26T17:27:51.332Z,100029.88
2023-03-26T17:30:52.641Z,100040.06
2023-03-26T17:33:32.891Z,100037.59
2023-03-26T17:36:11.881Z,100045.84
2023-03-26T17:38:45.336Z,100053.59
2023-03-26T17:41:14.705Z,100063.13
2023-03-26T17:43:50.869Z,100069.09
2023-03-26T17:46:29.471Z,100081.75
2023-03-26T17:49:17.613Z,100076.84
2023-03-26T17:52:06.147Z,100091.78
2023-03-26T17:54:50.682Z,100096.50
2023-03-26T17:57:23.502Z,100111.63
2023-03-26T17:59:53.597Z,100111.91
2023-03-26T18:02:24.170Z,100109.25
2023-03-26T18:04:53.824Z,100120.41
2023-03-26T18:07:58.177Z,100124.66
2023-03-26T18:13:47.929Z,100136.28
2023-03-26T18:16:18.619Z,100155.16
2023-03-26T18:18:52.212Z,100161.84
2023-03-26T18:21:33.693Z,100154.28
2023-03-26T18:24:02.112Z,100162.28
2023-03-26T18:26:42.257Z,100171.19
2023-03-26T18:29:21.450Z,100171.38
2023-03-26T18:31:50.063Z,100175.66
2023-03-26T18:34:20.746Z,100186.06
2023-03-26T18:36:58.077Z,100195.34
2023-03-26T18:39:24.772Z,100191.25
2023-03-26T18:41:51.454Z,100197.94
2023-03-26T18:44:18.949Z,100202.97
2023-03-26T18:46:45.918Z,100214.75
2023-03-26T18:49:14.243Z,100216.72
2023-03-26T18:51:54.099Z,100226.69
2023-03-26T18:54:23.703Z,100231.50
2023-03-26T18:56:52.464Z,100232.09
2023-03-26T18:59:28.416Z,100232.78
2023-03-26T19:01:59.257Z,100235.56
2023-03-26T19:04:27.014Z,100244.53
2023-03-26T19:06:55.237Z,100245.97
2023-03-26T19:09:31.688Z,100249.22
2023-03-26T19:12:06.290Z,100257.75
2023-03-26T19:14:37.122Z,100269.66
2023-03-26T19:17:05.800Z,100271.63
2023-03-26T19:19:36.976Z,100273.06
2023-03-26T19:22:07.847Z,100277.41
2023-03-26T19:24:34.661Z,100288.00
2023-03-26T19:27:01.566Z,100292.19
2023-03-26T19:29:32.101Z,100296.00
2023-03-26T19:32:23.236Z,100293.63
2023-03-26T19:34:53.564Z,100299.13
2023-03-26T19:37:26.595Z,100318.22
2023-03-26T19:39:55.570Z,100315.16
2023-03-26T19:42:43.353Z,100316.03
2023-03-26T19:45:21.958Z,100318.06
2023-03-26T19:48:00.090Z,100313.38
2023-03-26T19:50:33.878Z,100330.28
2023-03-26T19:53:19.600Z,100339.47
2023-03-26T19:56:12.000Z,100337.00
2023-03-26T19:58:39.883Z,100346.97
2023-03-26T20:01:07.035Z,100352.72
2023-03-26T20:03:40.880Z,100361.03
2023-03-26T20:06:12.119Z,100379.25
2023-03-26T20:08:40.716Z,100372.25
2023-03-26T20:11:15.159Z,100388.28
2023-03-26T20:13:41.848Z,100389.19
2023-03-26T20:16:29.292Z,100401.94
2023-03-26T20:18:57.985Z,100401.56
2023-03-26T20:21:25.571Z,100413.44
2023-03-26T20:23:53.980Z,100409.75
2023-03-26T20:26:22.081Z,100410.63
2023-03-26T20:31:25.408Z,100426.47
2023-03-26T20:33:53.526Z,100431.06
2023-03-26T20:36:33.819Z,100437.81
2023-03-26T20:39:06.320Z,100441.53
2023-03-26T20:41:34.033Z,100443.56
2023-03-26T20:44:01.155Z,100453.28
2023-03-26T20:46:31.221Z,100457.56
2023-03-26T20:48:59.931Z,100455.91
2023-03-26T20:51:28.972Z,100466.03
2023-03-26T20:53:56.153Z,100476.84
2023-03-26T20:56:22.961Z,100476.34
2023-03-26T20:58:54.729Z,100483.41
2023-03-26T21:01:27.972Z,100492.63
2023-03-26T21:03:54.930Z,100489.97
2023-03-26T21:06:21.618Z,100500.47
2023-03-26T21:08:48.680Z,100506.69
2023-03-26T21:11:26.878Z,100504.84
2023-03-26T21:14:08.195Z,100509.16
2023-03-26T21:16:35.481Z,100525.22
2023-03-26T21:19:03.580Z,100527.50
2023-03-26T21:21:59.141Z,100528.88
2023-03-26T21:24:37.118Z,100535.72
2023-03-26T21:27:36.244Z,100544.97
2023-03-26T21:30:06.549Z,100545.66
2023-03-26T21:32:34.418Z,100558.22
2023-03-26T21:35:03.494Z,100558.47
2023-03-26T21:37:31.215Z,100570.50
2023-03-26T21:39:59.995Z,100574.34
2023-03-26T21:42:31.988Z,100582.56
2023-03-26T21:44:59.063Z,100592.59
2023-03-26T21:47:26.078Z,100598.88
2023-03-26T21:49:54.840Z,100601.63
2023-03-26T21:52:22.784Z,100602.22
2023-03-26T21:54:49.780Z,100610.59
2023-03-26T21:57:32.050Z,100616.00
2023-03-26T22:00:16.428Z,100617.59
2023-03-26T22:03:09.137Z,100625.28
2023-03-26T22:05:59.943Z,100624.97
2023-03-26T22:08:32.864Z,100629.59
2023-03-26T22:11:00.048Z,100640.06
2023-03-26T22:13:27.611Z,100641.84
2023-03-26T22:15:54.664Z,100650.94
2023-03-26T22:18:21.666Z,100655.28
2023-03-26T22:20:49.184Z,100665.56
2023-03-26T22:23:17.050Z,100672.06
2023-03-26T22:25:44.139Z,100676.28
2023-03-26T22:28:10.944Z,100679.31
2023-03-26T22:30:37.772Z,100673.66
2023-03-26T22:33:05.543Z,100678.59
2023-03-26T22:35:32.362Z,100680.53
2023-03-26T22:38:00.438Z,100676.16
2023-03-26T22:40:28.690Z,100690.22
2023-03-26T22:42:55.430Z,100696.00
2023-03-26T22:45:23.100Z,100694.28
2023-03-26T22:47:50.106Z,100707.09
2023-03-26T22:50:16.911Z,100712.97
2023-03-26T22:52:43.644Z,100714.72
2023-03-26T22:55:11.794Z,100722.00
2023-03-26T22:57:39.766Z,100722.69
2023-03-26T23:00:19.225Z,100727.78
2023-03-26T23:02:46.872Z,100735.97
2023-03-26T23:05:14.854Z,100750.63
2023-03-26T23:07:42.654Z,100750.84
2023-03-26T23:10:11.312Z,100754.19
2023-03-26T23:12:39.199Z,100765.56
2023-03-26T23:15:06.571Z,100767.69
2023-03-26T23:17:35.152Z,100776.47
2023-03-26T23:20:06.323Z,100762.72
2023-03-26T23:22:35.500Z,100776.16
2023-03-26T23:25:02.404Z,100787.97
2023-03-26T23:27:29.182Z,100780.97
2023-03-26T23:29:56.060Z,100793.41
2023-03-26T23:32:25.346Z,100798.16
2023-03-26T23:34:52.536Z,100799.16
2023-03-26T23:37:23.522Z,100803.47
2023-03-26T23:39:51.068Z,100804.31
2023-03-26T23:42:28.361Z,100812.09
2023-03-26T23:44:57.275Z,100820.63
2023-03-26T23:47:24.346Z,100821.59
2023-03-26T23:49:51.343Z,100822.13
2023-03-26T23:52:18.443Z,100830.50
2023-03-26T23:54:45.818Z,100830.47
2023-03-26T23:57:12.675Z,100830.41
2023-03-26T23:59:41.707Z,100844.63
